^^
Station Historical Data
Daily Summary for January 10, 2018 Units:  Metric    English   Both
« Previous Day
Next Day »
Daily Weekly Monthly Yearly Custom
  High: Low: Average:
Temperature: -17.8 °C -21 °C -20.1 °C
Dew Point: -17.8 °C -21.6 °C -20.5 °C
Humidity: Humidity% 93% 93%
Wind Speed: 0km/h 0km/h 0km/h
Wind Gust: 0km/h - -
Wind- - NW
Pressure: 0 hPa 34682.8 hPa -
Precipitation: 0 mm    
Historical Graphs
 
 
Tabular Data for January 10, 2018
Time Temperature Dew Point Pressure Wind Wind Speed Wind Gust Humidity Rainfall Rate (Hourly) solar Conditions
-17.8 °C -17.8 °C 0 hPa Calm     Humidity% 0 mm SoftwareType W/m2 Conditions
02:15 -18.9 °C -19.5 °C 34703.1 hPa Calm   9 km/h 93% 0 mm WeatherDisplay:10.37 W/m2 FEW
02:41 -18.9 °C -19.5 °C 34703.1 hPa Calm     93% 0 mm WeatherDisplay:10.37 W/m2 FEW
03:07 -18.9 °C -19.5 °C 34703.1 hPa Calm     93% 0 mm WeatherDisplay:10.37 W/m2 FEW
03:15 -18.9 °C -19.5 °C 34703.1 hPa SW 0.5 km/h 6 km/h 93% 0 mm WeatherDisplay:10.37 W/m2 FEW
03:57 -18.9 °C -19.5 °C 34716.7 hPa Calm     93% 0 mm WeatherDisplay:10.37 W/m2 FEW
04:07 -19 °C -19.6 °C 34716.7 hPa NNW 1.3 km/h 9 km/h 93% 0 mm WeatherDisplay:10.37 W/m2 FEW
04:15 -19 °C -19.5 °C 34716.7 hPa Calm     94% 0 mm WeatherDisplay:10.37 W/m2 FEW
04:25 -19 °C -19.6 °C 34716.7 hPa Calm     93% 0 mm WeatherDisplay:10.37 W/m2 FEW
04:36 -19 °C -19.6 °C 34716.7 hPa NNW 2.3 km/h 9 km/h 93% 0 mm WeatherDisplay:10.37 W/m2 FEW
04:57 -19 °C -19.6 °C 34716.7 hPa Calm     93% 0 mm WeatherDisplay:10.37 W/m2 FEW
05:07 -19 °C -19.6 °C 34716.7 hPa Calm     93% 0 mm WeatherDisplay:10.37 W/m2 FEW
05:14 -19.1 °C -19.5 °C 34716.7 hPa Calm     94% 0 mm WeatherDisplay:10.37 W/m2 FEW
05:19 -19.1 °C -19.5 °C 34703.1 hPa Calm     94% 0 mm WeatherDisplay:10.37 W/m2 FEW
05:47 -19.1 °C -19.6 °C 34716.7 hPa Calm     94% 0 mm WeatherDisplay:10.37 W/m2 FEW
05:52 -19.1 °C -19.6 °C 34716.7 hPa Calm     94% 0 mm WeatherDisplay:10.37 W/m2 FEW
05:54 -19.1 °C -19.6 °C 34716.7 hPa Calm     94% 0 mm WeatherDisplay:10.37 W/m2 FEW
06:01 -19.1 °C -19.7 °C 34703.1 hPa Calm     93% 0 mm WeatherDisplay:10.37 W/m2 FEW
06:03 -19.1 °C -19.6 °C 34716.7 hPa Calm     94% 0 mm WeatherDisplay:10.37 W/m2 FEW
06:15 -19.1 °C -19.7 °C 34716.7 hPa Calm     93% 0 mm WeatherDisplay:10.37 W/m2 FEW
06:20 -19.1 °C -19.7 °C 34716.7 hPa Calm     93% 0 mm WeatherDisplay:10.37 W/m2 FEW
06:33 -19.1 °C -19.7 °C 34703.1 hPa Calm     93% 0 mm WeatherDisplay:10.37 W/m2 FEW
06:38 -19.2 °C -19.7 °C 34703.1 hPa Calm     93% 0 mm WeatherDisplay:10.37 W/m2 FEW
09:05 -19.7 °C -20.1 °C 34703.1 hPa Calm     94% 0 mm WeatherDisplay:10.37 W/m2 FEW
09:42 -19.7 °C -20.2 °C 34716.7 hPa Calm     94% 0 mm WeatherDisplay:10.37 W/m2 FEW
09:58 -19.7 °C -20.2 °C 34716.7 hPa Calm     94% 0 mm WeatherDisplay:10.37 W/m2 FEW
10:13 -19.7 °C -20.2 °C 34716.7 hPa Calm     94% 0 mm WeatherDisplay:10.37 W/m2 FEW
10:16 -19.7 °C -20.2 °C 34716.7 hPa Calm     94% 0 mm WeatherDisplay:10.37 W/m2 FEW
10:45 -19.8 °C -20.3 °C 34716.7 hPa Calm     94% 0 mm WeatherDisplay:10.37 W/m2 FEW
11:24 -19.8 °C -20.2 °C 34716.7 hPa Calm     94% 0 mm WeatherDisplay:10.37 W/m2 FEW
12:35 -19.8 °C -20.3 °C 34703.1 hPa Calm     94% 0 mm WeatherDisplay:10.37 W/m2 FEW
14:58 -19.6 °C -20.1 °C 34693 hPa Calm     94% 0 mm WeatherDisplay:10.37 W/m2 FEW
15:27 -19.7 °C -20.2 °C 34693 hPa Calm     94% 0 mm WeatherDisplay:10.37 W/m2 FEW
16:18 -19.9 °C -20.3 °C 34682.8 hPa Calm     94% 0 mm WeatherDisplay:10.37 W/m2 FEW
16:19 -19.9 °C -20.3 °C 34682.8 hPa Calm     94% 0 mm WeatherDisplay:10.37 W/m2 FEW
16:21 -19.9 °C -20.4 °C 34682.8 hPa Calm     94% 0 mm WeatherDisplay:10.37 W/m2 FEW
16:22 -19.9 °C -20.4 °C 34682.8 hPa Calm     94% 0 mm WeatherDisplay:10.37 W/m2 FEW
16:23 -19.9 °C -20.4 °C 34682.8 hPa Calm     94% 0 mm WeatherDisplay:10.37 W/m2 FEW
16:26 -19.9 °C -20.4 °C 34682.8 hPa Calm     94% 0 mm WeatherDisplay:10.37 W/m2 FEW
16:28 -19.9 °C -20.4 °C 34682.8 hPa Calm     94% 0 mm WeatherDisplay:10.37 W/m2 FEW
16:31 -19.9 °C -20.4 °C 34682.8 hPa NW 0.5 km/h 3.1 km/h 94% 0 mm WeatherDisplay:10.37 W/m2 FEW
16:40 -19.9 °C -20.4 °C 34682.8 hPa Calm     94% 0 mm WeatherDisplay:10.37 W/m2 FEW
16:45 -19.9 °C -20.4 °C 34682.8 hPa Calm     94% 0 mm WeatherDisplay:10.37 W/m2 FEW
16:50 -19.9 °C -20.4 °C 34682.8 hPa Calm     94% 0 mm WeatherDisplay:10.37 W/m2 FEW
16:56 -20 °C -20.4 °C 34682.8 hPa Calm     94% 0 mm WeatherDisplay:10.37 W/m2 FEW
17:01 -20 °C -20.4 °C 34693 hPa Calm     94% 0 mm WeatherDisplay:10.37 W/m2 FEW
17:06 -20 °C -20.4 °C 34693 hPa Calm     94% 0 mm WeatherDisplay:10.37 W/m2 FEW
17:11 -20 °C -20.4 °C 34693 hPa Calm     94% 0 mm WeatherDisplay:10.37 W/m2 FEW
17:16 -20 °C -20.4 °C 34693 hPa Calm     94% 0 mm WeatherDisplay:10.37 W/m2 FEW
17:21 -20 °C -20.4 °C 34693 hPa Calm     94% 0 mm WeatherDisplay:10.37 W/m2 FEW
17:26 -20.1 °C -20.5 °C 34693 hPa Calm     94% 0 mm WeatherDisplay:10.37 W/m2 FEW
17:32 -20.1 °C -20.5 °C 34693 hPa Calm     94% 0 mm WeatherDisplay:10.37 W/m2 FEW
17:37 -20.1 °C -20.6 °C 34693 hPa Calm     94% 0 mm WeatherDisplay:10.37 W/m2 FEW
17:42 -20.1 °C -20.6 °C 34693 hPa Calm     94% 0 mm WeatherDisplay:10.37 W/m2 FEW
17:53 -20.1 °C -20.6 °C 34693 hPa Calm     94% 0 mm WeatherDisplay:10.37 W/m2 FEW
17:58 -20.2 °C -20.6 °C 34693 hPa Calm     94% 0 mm WeatherDisplay:10.37 W/m2 FEW
18:03 -20.2 °C -20.7 °C 34693 hPa Calm     94% 0 mm WeatherDisplay:10.37 W/m2 FEW
18:08 -20.2 °C -20.7 °C 34693 hPa Calm     94% 0 mm WeatherDisplay:10.37 W/m2 FEW
18:13 -20.2 °C -20.7 °C 34693 hPa Calm     94% 0 mm WeatherDisplay:10.37 W/m2 FEW
18:18 -20.2 °C -20.7 °C 34682.8 hPa Calm     94% 0 mm WeatherDisplay:10.37 W/m2 FEW
18:23 -20.2 °C -20.7 °C 34682.8 hPa Calm     94% 0 mm WeatherDisplay:10.37 W/m2 FEW
18:28 -20.2 °C -20.7 °C 34693 hPa Calm     94% 0 mm WeatherDisplay:10.37 W/m2 FEW
18:38 -20.3 °C -20.7 °C 34682.8 hPa Calm     94% 0 mm WeatherDisplay:10.37 W/m2 FEW
18:43 -20.3 °C -20.8 °C 34682.8 hPa Calm     94% 0 mm WeatherDisplay:10.37 W/m2 FEW
18:50 -20.3 °C -20.8 °C 34682.8 hPa Calm     94% 0 mm WeatherDisplay:10.37 W/m2 FEW
18:55 -20.3 °C -20.8 °C 34682.8 hPa Calm     94% 0 mm WeatherDisplay:10.37 W/m2 FEW
19:05 -20.3 °C -20.8 °C 34682.8 hPa NNW 2.1 km/h 9 km/h 94% 0 mm WeatherDisplay:10.37 W/m2 FEW
19:10 -20.4 °C -20.8 °C 34693 hPa Calm     94% 0 mm WeatherDisplay:10.37 W/m2 FEW
19:24 -20.4 °C -20.8 °C 34693 hPa NNW 0.5 km/h 7.7 km/h 94% 0 mm WeatherDisplay:10.37 W/m2 FEW
19:29 -20.4 °C -20.9 °C 34682.8 hPa Calm     94% 0 mm WeatherDisplay:10.37 W/m2 FEW
19:34 -20.4 °C -20.9 °C 34682.8 hPa Calm     94% 0 mm WeatherDisplay:10.37 W/m2 FEW
19:39 -20.4 °C -20.9 °C 34682.8 hPa Calm     94% 0 mm WeatherDisplay:10.37 W/m2 FEW
19:44 -20.4 °C -20.8 °C 34682.8 hPa Calm     94% 0 mm WeatherDisplay:10.37 W/m2 FEW
19:49 -20.4 °C -20.8 °C 34693 hPa NNW 0.3 km/h 7.7 km/h 94% 0 mm WeatherDisplay:10.37 W/m2 FEW
19:54 -20.4 °C -20.8 °C 34682.8 hPa Calm     94% 0 mm WeatherDisplay:10.37 W/m2 FEW
19:59 -20.4 °C -20.8 °C 34682.8 hPa Calm     94% 0 mm WeatherDisplay:10.37 W/m2 FEW
20:04 -20.3 °C -20.8 °C 34682.8 hPa Calm     94% 0 mm WeatherDisplay:10.37 W/m2 FEW
20:09 -20.3 °C -20.8 °C 34682.8 hPa Calm     94% 0 mm WeatherDisplay:10.37 W/m2 FEW
20:14 -20.3 °C -20.8 °C 34682.8 hPa Calm     94% 0 mm WeatherDisplay:10.37 W/m2 FEW
20:19 -20.3 °C -20.8 °C 34682.8 hPa Calm     94% 0 mm WeatherDisplay:10.37 W/m2 FEW
20:24 -20.3 °C -20.8 °C 34682.8 hPa Calm     94% 0 mm WeatherDisplay:10.37 W/m2 FEW
20:29 -20.3 °C -20.8 °C 34682.8 hPa Calm     94% 0 mm WeatherDisplay:10.37 W/m2 FEW
20:39 -20.3 °C -20.8 °C 34682.8 hPa Calm     94% 0 mm WeatherDisplay:10.37 W/m2 FEW
20:44 -20.3 °C -20.8 °C 34682.8 hPa Calm     94% 0 mm WeatherDisplay:10.37 W/m2 FEW
20:49 -20.4 °C -20.8 °C 34682.8 hPa Calm     94% 0 mm WeatherDisplay:10.37 W/m2 FEW
20:54 -20.4 °C -20.8 °C 34693 hPa Calm     94% 0 mm WeatherDisplay:10.37 W/m2 FEW
21:04 -20.4 °C -20.9 °C 34682.8 hPa Calm     94% 0 mm WeatherDisplay:10.37 W/m2 FEW
21:09 -20.4 °C -20.9 °C 34693 hPa Calm     94% 0 mm WeatherDisplay:10.37 W/m2 FEW
21:14 -20.5 °C -21 °C 34693 hPa Calm     94% 0 mm WeatherDisplay:10.37 W/m2 FEW
21:19 -20.6 °C -21.1 °C 34693 hPa Calm     94% 0 mm WeatherDisplay:10.37 W/m2 FEW
21:30 -20.7 °C -21.1 °C 34693 hPa Calm     94% 0 mm WeatherDisplay:10.37 W/m2 FEW
21:35 -20.7 °C -21.2 °C 34693 hPa Calm     94% 0 mm WeatherDisplay:10.37 W/m2 FEW
21:40 -20.7 °C -21.2 °C 34693 hPa Calm     94% 0 mm WeatherDisplay:10.37 W/m2 FEW
21:48 -20.7 °C -21.2 °C 34693 hPa Calm     94% 0 mm WeatherDisplay:10.37 W/m2 FEW
22:02 -20.7 °C -21.2 °C 34693 hPa Calm     94% 0 mm WeatherDisplay:10.37 W/m2 FEW
22:14 -20.8 °C -21.3 °C 34693 hPa Calm     94% 0 mm WeatherDisplay:10.37 W/m2 FEW
22:19 -20.8 °C -21.3 °C 34693 hPa Calm     94% 0 mm WeatherDisplay:10.37 W/m2 FEW
22:24 -20.8 °C -21.3 °C 34693 hPa Calm     94% 0 mm WeatherDisplay:10.37 W/m2 FEW
22:29 -20.8 °C -21.3 °C 34693 hPa Calm     94% 0 mm WeatherDisplay:10.37 W/m2 FEW
22:34 -20.9 °C -21.3 °C 34693 hPa Calm     94% 0 mm WeatherDisplay:10.37 W/m2 FEW
22:42 -20.9 °C -21.3 °C 34693 hPa Calm     94% 0 mm WeatherDisplay:10.37 W/m2 FEW
22:47 -20.9 °C -21.3 °C 34693 hPa Calm     94% 0 mm WeatherDisplay:10.37 W/m2 FEW
22:52 -20.9 °C -21.4 °C 34693 hPa Calm     94% 0 mm WeatherDisplay:10.37 W/m2 FEW
22:59 -20.9 °C -21.5 °C 34693 hPa Calm     93% 0 mm WeatherDisplay:10.37 W/m2 FEW
23:04 -20.9 °C -21.5 °C 34693 hPa Calm     93% 0 mm WeatherDisplay:10.37 W/m2 FEW
23:10 -21 °C -21.6 °C 34693 hPa Calm     93% 0 mm WeatherDisplay:10.37 W/m2 FEW
23:19 -21 °C -21.6 °C 34693 hPa Calm     93% 0 mm WeatherDisplay:10.37 W/m2 FEW
23:27 -21 °C -21.5 °C 34693 hPa Calm     93% 0 mm WeatherDisplay:10.37 W/m2 FEW
23:32 -21 °C -21.5 °C 34693 hPa Calm     93% 0 mm WeatherDisplay:10.37 W/m2 FEW
23:37 -20.9 °C -21.5 °C 34693 hPa Calm     93% 0 mm WeatherDisplay:10.37 W/m2 FEW
23:42 -20.9 °C -21.5 °C 34693 hPa Calm     93% 0 mm WeatherDisplay:10.37 W/m2 FEW
23:49 -21 °C -21.5 °C 34693 hPa Calm     93% 0 mm WeatherDisplay:10.37 W/m2 FEW
23:55 -21 °C -21.6 °C 34693 hPa Calm     93% 0 mm WeatherDisplay:10.37 W/m2 FEW
Tuulensuunkaari, Veikkola, Suomi
Compliments of Weather Underground - 1.75 mb